ASA1414 KSAN-MMSD
Flight info
| Callsign | ASA1414 |
|---|---|
| Flight time | 1h 50m |
| Altitude | 39000 |
| Route | ZZOOO4 CENZA DCT TIJ UT6 IMUSU UT25 LTO/N0388F170 V4 ENEKO ENEKO1B |
| Aircraft | B739/M-SDE2E3FGHIRWXY/LB1 |
Departure
| Time | 2026-05-06 01:38 |
|---|---|
| Airport | San Diego International Airport (KSAN) |
Arrival
| Time | 2026-05-06 03:28 |
|---|---|
| Airport | Los Cabos International Airport (MMSD) |
| Time | Latitude | Longitude | Altitude | Speed | Heading |
|---|---|---|---|---|---|
| 2026-05-06 01:17 | 32.73302 | -117.20057 | 22 ft | 0 kts | 277° |
| 2026-05-06 01:27 | 32.73302 | -117.20052 | 22 ft | 2 kts | 277° |
| 2026-05-06 01:27 | 32.73299 | -117.20033 | 25 ft | 2 kts | 281° |
| 2026-05-06 01:28 | 32.73296 | -117.20014 | 25 ft | 2 kts | 289° |
| 2026-05-06 01:28 | 32.73289 | -117.19997 | 26 ft | 2 kts | 318° |
| 2026-05-06 01:28 | 32.73275 | -117.19991 | 25 ft | 1 kts | 11° |
| 2026-05-06 01:28 | 32.73273 | -117.19992 | 24 ft | 0 kts | 11° |
| 2026-05-06 01:33 | 32.73317 | -117.19985 | 23 ft | 15 kts | 0° |
| 2026-05-06 01:34 | 32.73419 | -117.19967 | 24 ft | 17 kts | 15° |
| 2026-05-06 01:34 | 32.73479 | -117.19922 | 22 ft | 4 kts | 90° |
| 2026-05-06 01:34 | 32.73449 | -117.19781 | 22 ft | 29 kts | 106° |
| 2026-05-06 01:34 | 32.73412 | -117.19628 | 24 ft | 30 kts | 105° |
| 2026-05-06 01:35 | 32.73357 | -117.19400 | 24 ft | 28 kts | 106° |
| 2026-05-06 01:35 | 32.73306 | -117.19187 | 22 ft | 26 kts | 106° |
| 2026-05-06 01:35 | 32.73257 | -117.18987 | 23 ft | 24 kts | 105° |
| 2026-05-06 01:35 | 32.73212 | -117.18799 | 24 ft | 23 kts | 106° |
| 2026-05-06 01:36 | 32.73169 | -117.18621 | 22 ft | 22 kts | 106° |
| 2026-05-06 01:36 | 32.73127 | -117.18447 | 22 ft | 22 kts | 106° |
| 2026-05-06 01:36 | 32.73086 | -117.18277 | 22 ft | 21 kts | 106° |
| 2026-05-06 01:36 | 32.73046 | -117.18111 | 19 ft | 20 kts | 106° |
| 2026-05-06 01:37 | 32.73006 | -117.17952 | 20 ft | 21 kts | 107° |
| 2026-05-06 01:37 | 32.72958 | -117.17765 | 20 ft | 26 kts | 108° |
| 2026-05-06 01:37 | 32.72995 | -117.17608 | 21 ft | 13 kts | 23° |
| 2026-05-06 01:37 | 32.73041 | -117.17670 | 20 ft | 9 kts | 286° |
| 2026-05-06 01:38 | 32.73099 | -117.17912 | 19 ft | 66 kts | 285° |
| 2026-05-06 01:38 | 32.73287 | -117.18699 | 20 ft | 129 kts | 286° |
| 2026-05-06 01:38 | 32.73584 | -117.19890 | 238 ft | 162 kts | 286° |
| 2026-05-06 01:38 | 32.73906 | -117.21235 | 893 ft | 172 kts | 285° |
| 2026-05-06 01:39 | 32.74205 | -117.22587 | 1653 ft | 171 kts | 284° |
| 2026-05-06 01:39 | 32.74529 | -117.24021 | 2214 ft | 185 kts | 285° |
| 2026-05-06 01:39 | 32.74873 | -117.25529 | 2812 ft | 196 kts | 285° |
| 2026-05-06 01:39 | 32.75264 | -117.27169 | 3233 ft | 213 kts | 285° |
| 2026-05-06 01:40 | 32.75671 | -117.28901 | 3782 ft | 224 kts | 285° |
| 2026-05-06 01:40 | 32.76106 | -117.30720 | 4439 ft | 236 kts | 285° |
| 2026-05-06 01:40 | 32.76447 | -117.32623 | 5371 ft | 235 kts | 272° |
| 2026-05-06 01:40 | 32.76103 | -117.34556 | 6102 ft | 248 kts | 244° |
| 2026-05-06 01:41 | 32.74998 | -117.36130 | 6924 ft | 252 kts | 216° |
| 2026-05-06 01:41 | 32.73380 | -117.36974 | 7717 ft | 260 kts | 189° |
| 2026-05-06 01:41 | 32.71571 | -117.36826 | 8485 ft | 268 kts | 161° |
| 2026-05-06 01:41 | 32.69991 | -117.35643 | 9274 ft | 273 kts | 134° |
| 2026-05-06 01:42 | 32.68770 | -117.33881 | 9996 ft | 281 kts | 126° |
| 2026-05-06 01:42 | 32.67642 | -117.31976 | 10745 ft | 283 kts | 124° |
| 2026-05-06 01:42 | 32.66496 | -117.30045 | 11484 ft | 287 kts | 125° |
| 2026-05-06 01:42 | 32.65323 | -117.28114 | 12231 ft | 290 kts | 125° |
| 2026-05-06 01:43 | 32.64125 | -117.26170 | 13025 ft | 292 kts | 126° |
| 2026-05-06 01:43 | 32.62960 | -117.24174 | 13758 ft | 297 kts | 116° |
| 2026-05-06 01:43 | 32.62163 | -117.21835 | 14057 ft | 316 kts | 108° |
| 2026-05-06 01:43 | 32.61442 | -117.19282 | 14213 ft | 340 kts | 108° |
| 2026-05-06 01:44 | 32.60648 | -117.16546 | 14390 ft | 362 kts | 108° |
| 2026-05-06 01:44 | 32.59777 | -117.13666 | 14545 ft | 383 kts | 109° |
| 2026-05-06 01:44 | 32.58850 | -117.10662 | 14719 ft | 401 kts | 109° |
| 2026-05-06 01:44 | 32.57866 | -117.07524 | 15167 ft | 409 kts | 110° |
| 2026-05-06 01:45 | 32.56848 | -117.04309 | 15800 ft | 413 kts | 110° |
| 2026-05-06 01:45 | 32.55850 | -117.01158 | 16432 ft | 415 kts | 110° |
| 2026-05-06 01:45 | 32.54748 | -116.97980 | 17058 ft | 419 kts | 117° |
| 2026-05-06 01:45 | 32.53188 | -116.95051 | 17634 ft | 423 kts | 128° |
| 2026-05-06 01:46 | 32.51200 | -116.92459 | 18230 ft | 425 kts | 139° |
| 2026-05-06 01:46 | 32.48924 | -116.90224 | 18782 ft | 428 kts | 142° |
| 2026-05-06 01:46 | 32.46582 | -116.88015 | 19259 ft | 432 kts | 143° |
| 2026-05-06 01:46 | 32.44208 | -116.85776 | 19709 ft | 438 kts | 143° |
| 2026-05-06 01:47 | 32.41814 | -116.83514 | 20163 ft | 443 kts | 143° |
| 2026-05-06 01:47 | 32.39411 | -116.81224 | 20699 ft | 445 kts | 143° |
| 2026-05-06 01:47 | 32.36991 | -116.78903 | 21155 ft | 450 kts | 143° |
| 2026-05-06 01:47 | 32.34545 | -116.76558 | 21636 ft | 453 kts | 143° |
| 2026-05-06 01:48 | 32.32087 | -116.74196 | 22130 ft | 457 kts | 144° |
| 2026-05-06 01:48 | 32.29608 | -116.71815 | 22596 ft | 461 kts | 144° |
| 2026-05-06 01:48 | 32.27109 | -116.69416 | 23064 ft | 464 kts | 144° |
| 2026-05-06 01:48 | 32.24591 | -116.67000 | 23405 ft | 471 kts | 145° |
| 2026-05-06 01:49 | 32.22035 | -116.64549 | 23764 ft | 476 kts | 145° |
| 2026-05-06 01:49 | 32.19471 | -116.62090 | 24161 ft | 478 kts | 146° |
| 2026-05-06 01:49 | 32.14004 | -116.56851 | 24985 ft | 483 kts | 146° |
| 2026-05-06 01:50 | 32.11408 | -116.54300 | 25326 ft | 488 kts | 145° |
| 2026-05-06 01:50 | 32.08812 | -116.51711 | 25644 ft | 491 kts | 145° |
| 2026-05-06 01:50 | 32.06205 | -116.49091 | 25975 ft | 494 kts | 146° |
| 2026-05-06 01:50 | 32.03577 | -116.46461 | 26181 ft | 499 kts | 147° |
| 2026-05-06 01:51 | 32.00913 | -116.43818 | 26496 ft | 502 kts | 147° |
| 2026-05-06 01:51 | 31.98239 | -116.41163 | 26884 ft | 503 kts | 147° |
| 2026-05-06 01:51 | 31.95560 | -116.38501 | 27258 ft | 505 kts | 147° |
| 2026-05-06 01:51 | 31.92866 | -116.35834 | 27573 ft | 507 kts | 147° |
| 2026-05-06 01:52 | 31.90153 | -116.33150 | 27924 ft | 509 kts | 147° |
| 2026-05-06 01:52 | 31.87456 | -116.30480 | 28481 ft | 506 kts | 148° |
| 2026-05-06 01:52 | 31.84766 | -116.27821 | 28942 ft | 503 kts | 150° |
| 2026-05-06 01:52 | 31.82088 | -116.25178 | 29471 ft | 502 kts | 151° |
| 2026-05-06 01:53 | 31.79428 | -116.22553 | 30068 ft | 498 kts | 152° |
| 2026-05-06 01:53 | 31.76785 | -116.19951 | 30543 ft | 496 kts | 152° |
| 2026-05-06 01:53 | 31.74134 | -116.17343 | 30917 ft | 496 kts | 152° |
| 2026-05-06 01:53 | 31.71447 | -116.14805 | 31248 ft | 493 kts | 154° |
| 2026-05-06 01:54 | 31.68726 | -116.12369 | 31619 ft | 491 kts | 155° |
| 2026-05-06 01:54 | 31.65994 | -116.09978 | 32011 ft | 489 kts | 155° |
| 2026-05-06 01:54 | 31.63265 | -116.07598 | 32397 ft | 488 kts | 156° |
| 2026-05-06 01:54 | 31.60552 | -116.05226 | 32803 ft | 487 kts | 155° |
| 2026-05-06 01:55 | 31.57847 | -116.02845 | 33151 ft | 487 kts | 155° |
| 2026-05-06 01:55 | 31.55136 | -116.00447 | 33473 ft | 487 kts | 155° |
| 2026-05-06 01:55 | 31.52437 | -115.98054 | 33840 ft | 486 kts | 155° |
| 2026-05-06 01:55 | 31.50034 | -115.95919 | 34162 ft | 485 kts | 155° |
| 2026-05-06 01:56 | 31.47334 | -115.93507 | 34351 ft | 488 kts | 154° |
| 2026-05-06 01:56 | 31.44652 | -115.91107 | 34752 ft | 483 kts | 154° |
| 2026-05-06 01:56 | 31.42017 | -115.88754 | 35310 ft | 475 kts | 155° |
| 2026-05-06 01:56 | 31.39381 | -115.86421 | 35587 ft | 474 kts | 155° |
| 2026-05-06 01:57 | 31.36724 | -115.84084 | 35724 ft | 477 kts | 155° |
| 2026-05-06 01:57 | 31.34066 | -115.81749 | 35908 ft | 479 kts | 154° |
| 2026-05-06 01:57 | 31.31406 | -115.79405 | 36122 ft | 479 kts | 154° |
| 2026-05-06 01:57 | 31.28752 | -115.77062 | 36399 ft | 478 kts | 154° |
| 2026-05-06 01:58 | 31.26098 | -115.74715 | 36667 ft | 477 kts | 154° |
| 2026-05-06 01:58 | 31.23454 | -115.72381 | 36843 ft | 477 kts | 154° |
| 2026-05-06 01:58 | 31.20801 | -115.70045 | 37094 ft | 476 kts | 154° |
| 2026-05-06 01:58 | 31.18160 | -115.67716 | 37377 ft | 475 kts | 154° |
| 2026-05-06 01:59 | 31.15523 | -115.65397 | 37584 ft | 475 kts | 154° |
| 2026-05-06 01:59 | 31.14660 | -115.64644 | 37628 ft | 475 kts | 154° |
| 2026-05-06 01:59 | 31.10254 | -115.60731 | 38098 ft | 473 kts | 154° |
| 2026-05-06 02:00 | 31.04910 | -115.56165 | 38527 ft | 470 kts | 154° |
| 2026-05-06 02:00 | 31.02824 | -115.54227 | 38645 ft | 475 kts | 151° |
| 2026-05-06 02:00 | 30.97618 | -115.49556 | 38766 ft | 472 kts | 155° |
| 2026-05-06 02:01 | 30.94969 | -115.47298 | 38927 ft | 471 kts | 155° |
| 2026-05-06 02:01 | 30.92330 | -115.45020 | 39010 ft | 473 kts | 155° |
| 2026-05-06 02:01 | 30.87031 | -115.40455 | 39024 ft | 477 kts | 154° |
| 2026-05-06 02:02 | 30.81706 | -115.35802 | 39002 ft | 481 kts | 154° |
| 2026-05-06 02:02 | 30.76387 | -115.31023 | 39012 ft | 485 kts | 152° |
| 2026-05-06 02:03 | 30.71092 | -115.26150 | 38979 ft | 484 kts | 152° |
| 2026-05-06 02:03 | 30.65792 | -115.21369 | 38964 ft | 481 kts | 153° |
| 2026-05-06 02:04 | 30.60633 | -115.16346 | 38991 ft | 485 kts | 150° |
| 2026-05-06 02:04 | 30.55468 | -115.11492 | 38949 ft | 478 kts | 153° |
| 2026-05-06 02:05 | 30.50225 | -115.06744 | 38963 ft | 477 kts | 154° |
| 2026-05-06 02:05 | 30.44979 | -115.02094 | 38973 ft | 471 kts | 155° |
| 2026-05-06 02:06 | 30.39658 | -114.97302 | 38963 ft | 476 kts | 153° |
| 2026-05-06 02:06 | 30.37193 | -114.95002 | 38913 ft | 475 kts | 154° |
| 2026-05-06 02:07 | 30.23929 | -114.82834 | 38986 ft | 475 kts | 153° |
| 2026-05-06 02:08 | 30.18777 | -114.78079 | 38978 ft | 475 kts | 153° |
| 2026-05-06 02:08 | 30.14435 | -114.74108 | 38952 ft | 474 kts | 154° |
| 2026-05-06 02:09 | 30.09242 | -114.69434 | 38956 ft | 473 kts | 154° |
| 2026-05-06 02:09 | 30.04088 | -114.64723 | 38971 ft | 474 kts | 153° |
| 2026-05-06 02:10 | 29.98989 | -114.59913 | 38957 ft | 469 kts | 155° |
| 2026-05-06 02:10 | 29.93853 | -114.55237 | 38953 ft | 469 kts | 155° |
| 2026-05-06 02:11 | 29.88662 | -114.50719 | 38966 ft | 466 kts | 156° |
| 2026-05-06 02:11 | 29.83538 | -114.46203 | 38968 ft | 468 kts | 155° |
| 2026-05-06 02:12 | 29.78407 | -114.41577 | 38984 ft | 469 kts | 155° |
| 2026-05-06 02:12 | 29.73287 | -114.36955 | 38957 ft | 467 kts | 155° |
| 2026-05-06 02:13 | 29.67833 | -114.32050 | 38980 ft | 464 kts | 156° |
| 2026-05-06 02:13 | 29.62722 | -114.27551 | 38978 ft | 461 kts | 157° |
| 2026-05-06 02:14 | 29.57643 | -114.23031 | 38967 ft | 464 kts | 155° |
| 2026-05-06 02:14 | 29.52578 | -114.18492 | 38983 ft | 458 kts | 156° |
| 2026-05-06 02:15 | 29.47572 | -114.13900 | 38978 ft | 459 kts | 155° |
| 2026-05-06 02:15 | 29.42511 | -114.09543 | 38984 ft | 451 kts | 157° |
| 2026-05-06 02:16 | 29.37577 | -114.04975 | 38983 ft | 456 kts | 155° |
| 2026-05-06 02:16 | 29.32623 | -114.00529 | 39004 ft | 454 kts | 156° |
| 2026-05-06 02:17 | 29.27589 | -113.96085 | 38984 ft | 454 kts | 156° |
| 2026-05-06 02:17 | 29.22638 | -113.91655 | 38971 ft | 453 kts | 156° |
| 2026-05-06 02:18 | 29.17665 | -113.87198 | 38988 ft | 455 kts | 155° |
| 2026-05-06 02:18 | 29.12654 | -113.82858 | 39017 ft | 451 kts | 157° |
| 2026-05-06 02:19 | 29.07659 | -113.78479 | 39006 ft | 453 kts | 156° |
| 2026-05-06 02:19 | 29.02695 | -113.74069 | 38976 ft | 452 kts | 156° |
| 2026-05-06 02:20 | 28.95227 | -113.67468 | 39002 ft | 452 kts | 156° |
| 2026-05-06 02:21 | 28.90247 | -113.63084 | 39019 ft | 452 kts | 156° |
| 2026-05-06 02:21 | 28.85284 | -113.58679 | 39013 ft | 454 kts | 155° |
| 2026-05-06 02:22 | 28.80311 | -113.54267 | 38974 ft | 448 kts | 157° |
| 2026-05-06 02:22 | 28.75324 | -113.49999 | 39002 ft | 450 kts | 156° |
| 2026-05-06 02:23 | 28.70357 | -113.45640 | 38985 ft | 452 kts | 156° |
| 2026-05-06 02:23 | 28.65384 | -113.41257 | 38965 ft | 452 kts | 156° |
| 2026-05-06 02:24 | 28.60438 | -113.36915 | 38995 ft | 452 kts | 156° |
| 2026-05-06 02:24 | 28.55443 | -113.32555 | 38982 ft | 453 kts | 156° |
| 2026-05-06 02:25 | 28.50456 | -113.28193 | 38980 ft | 453 kts | 156° |
| 2026-05-06 02:26 | 28.40456 | -113.19605 | 38983 ft | 452 kts | 156° |
| 2026-05-06 02:26 | 28.35530 | -113.15123 | 38970 ft | 457 kts | 155° |
| 2026-05-06 02:27 | 28.30522 | -113.10753 | 38982 ft | 453 kts | 156° |
| 2026-05-06 02:27 | 28.25468 | -113.06407 | 38990 ft | 447 kts | 159° |
| 2026-05-06 02:28 | 28.20487 | -113.02222 | 38977 ft | 452 kts | 154° |
| 2026-05-06 02:28 | 28.15532 | -112.97924 | 38990 ft | 450 kts | 156° |
| 2026-05-06 02:29 | 28.10572 | -112.93590 | 38948 ft | 450 kts | 156° |
| 2026-05-06 02:29 | 28.05600 | -112.89271 | 38974 ft | 452 kts | 155° |
| 2026-05-06 02:30 | 28.00639 | -112.84927 | 38986 ft | 452 kts | 156° |
| 2026-05-06 02:30 | 27.95601 | -112.80679 | 38978 ft | 453 kts | 156° |
| 2026-05-06 02:31 | 27.90595 | -112.76316 | 38962 ft | 454 kts | 156° |
| 2026-05-06 02:31 | 27.85559 | -112.72011 | 38933 ft | 454 kts | 156° |
| 2026-05-06 02:32 | 27.80523 | -112.67699 | 38967 ft | 454 kts | 156° |
| 2026-05-06 02:32 | 27.75484 | -112.63381 | 38986 ft | 455 kts | 156° |
| 2026-05-06 02:33 | 27.70445 | -112.59067 | 38982 ft | 456 kts | 156° |
| 2026-05-06 02:33 | 27.68767 | -112.57632 | 38977 ft | 456 kts | 156° |
| 2026-05-06 02:34 | 27.60345 | -112.50341 | 38968 ft | 459 kts | 155° |
| 2026-05-06 02:34 | 27.55300 | -112.45973 | 38976 ft | 461 kts | 154° |
| 2026-05-06 02:35 | 27.50196 | -112.41771 | 38977 ft | 454 kts | 157° |
| 2026-05-06 02:35 | 27.45107 | -112.37496 | 38979 ft | 458 kts | 156° |
| 2026-05-06 02:36 | 27.40040 | -112.33160 | 38977 ft | 457 kts | 156° |
| 2026-05-06 02:36 | 27.34974 | -112.28851 | 38970 ft | 456 kts | 155° |
| 2026-05-06 02:37 | 27.29891 | -112.24844 | 38975 ft | 432 kts | 161° |
| 2026-05-06 02:37 | 27.24812 | -112.21337 | 38980 ft | 425 kts | 162° |
| 2026-05-06 02:38 | 27.19761 | -112.17921 | 38960 ft | 422 kts | 162° |
| 2026-05-06 02:38 | 27.14787 | -112.14522 | 38967 ft | 420 kts | 162° |
| 2026-05-06 02:39 | 27.09816 | -112.11103 | 38965 ft | 417 kts | 161° |
| 2026-05-06 02:39 | 27.04878 | -112.07703 | 38972 ft | 417 kts | 161° |
| 2026-05-06 02:40 | 26.99930 | -112.04300 | 38970 ft | 417 kts | 161° |
| 2026-05-06 02:40 | 26.94966 | -112.00893 | 38975 ft | 419 kts | 161° |
| 2026-05-06 02:41 | 26.89971 | -111.97444 | 38975 ft | 424 kts | 161° |
| 2026-05-06 02:41 | 26.85804 | -111.94564 | 38974 ft | 423 kts | 161° |
| 2026-05-06 02:42 | 26.80775 | -111.91127 | 38933 ft | 424 kts | 161° |
| 2026-05-06 02:42 | 26.75748 | -111.87715 | 38974 ft | 421 kts | 161° |
| 2026-05-06 02:43 | 26.70721 | -111.84301 | 38975 ft | 423 kts | 161° |
| 2026-05-06 02:43 | 26.65710 | -111.80860 | 38967 ft | 423 kts | 161° |
| 2026-05-06 02:44 | 26.60705 | -111.77431 | 38961 ft | 421 kts | 161° |
| 2026-05-06 02:44 | 26.55711 | -111.74022 | 38965 ft | 420 kts | 161° |
| 2026-05-06 02:45 | 26.50735 | -111.70626 | 38971 ft | 419 kts | 160° |
| 2026-05-06 02:45 | 26.45786 | -111.67280 | 38975 ft | 415 kts | 161° |
| 2026-05-06 02:46 | 26.40872 | -111.63923 | 38966 ft | 414 kts | 161° |
| 2026-05-06 02:46 | 26.35963 | -111.60589 | 38948 ft | 413 kts | 161° |
| 2026-05-06 02:47 | 26.31068 | -111.57269 | 38967 ft | 412 kts | 161° |
| 2026-05-06 02:47 | 26.26182 | -111.53961 | 38975 ft | 411 kts | 161° |
| 2026-05-06 02:48 | 26.21318 | -111.50669 | 38972 ft | 412 kts | 161° |
| 2026-05-06 02:48 | 26.16412 | -111.47352 | 38981 ft | 413 kts | 161° |
| 2026-05-06 02:49 | 26.11484 | -111.44024 | 38979 ft | 415 kts | 161° |
| 2026-05-06 02:49 | 26.06549 | -111.40689 | 38985 ft | 416 kts | 161° |
| 2026-05-06 02:50 | 26.01579 | -111.37403 | 38974 ft | 417 kts | 161° |
| 2026-05-06 02:50 | 25.96779 | -111.33576 | 38989 ft | 440 kts | 147° |
| 2026-05-06 02:51 | 25.92533 | -111.28556 | 38997 ft | 448 kts | 144° |
| 2026-05-06 02:51 | 25.88257 | -111.23458 | 38994 ft | 453 kts | 145° |
| 2026-05-06 02:52 | 25.83905 | -111.18328 | 38963 ft | 458 kts | 144° |
| 2026-05-06 02:52 | 25.79511 | -111.13172 | 38969 ft | 463 kts | 144° |
| 2026-05-06 02:53 | 25.75063 | -111.07963 | 38969 ft | 467 kts | 144° |
| 2026-05-06 02:53 | 25.70588 | -111.02728 | 38955 ft | 469 kts | 144° |
| 2026-05-06 02:54 | 25.66095 | -110.97473 | 38948 ft | 469 kts | 144° |
| 2026-05-06 02:54 | 25.61617 | -110.92245 | 38922 ft | 467 kts | 144° |
| 2026-05-06 02:55 | 25.57144 | -110.87032 | 38936 ft | 465 kts | 144° |
| 2026-05-06 02:55 | 25.52686 | -110.81845 | 38953 ft | 464 kts | 144° |
| 2026-05-06 02:56 | 25.48239 | -110.76676 | 38951 ft | 463 kts | 144° |
| 2026-05-06 02:56 | 25.43831 | -110.71559 | 38947 ft | 462 kts | 144° |
| 2026-05-06 02:57 | 25.39392 | -110.66411 | 38949 ft | 462 kts | 144° |
| 2026-05-06 02:57 | 25.34955 | -110.61273 | 38932 ft | 462 kts | 143° |
| 2026-05-06 02:58 | 25.30515 | -110.56136 | 38940 ft | 462 kts | 143° |
| 2026-05-06 02:58 | 25.26068 | -110.50993 | 38952 ft | 464 kts | 143° |
| 2026-05-06 02:59 | 25.21607 | -110.45836 | 38939 ft | 465 kts | 143° |
| 2026-05-06 02:59 | 25.17129 | -110.40666 | 38942 ft | 466 kts | 143° |
| 2026-05-06 03:00 | 25.12642 | -110.35492 | 38940 ft | 467 kts | 143° |
| 2026-05-06 03:00 | 25.08143 | -110.30308 | 38938 ft | 467 kts | 143° |
| 2026-05-06 03:01 | 25.03642 | -110.25130 | 38941 ft | 468 kts | 143° |
| 2026-05-06 03:01 | 24.99134 | -110.19951 | 38936 ft | 468 kts | 143° |
| 2026-05-06 03:02 | 24.94625 | -110.14775 | 38939 ft | 468 kts | 143° |
| 2026-05-06 03:02 | 24.90121 | -110.09612 | 38934 ft | 468 kts | 143° |
| 2026-05-06 03:03 | 24.85604 | -110.04440 | 38914 ft | 468 kts | 143° |
| 2026-05-06 03:03 | 24.81112 | -109.99303 | 38936 ft | 469 kts | 143° |
| 2026-05-06 03:04 | 24.76577 | -109.94122 | 38940 ft | 471 kts | 143° |
| 2026-05-06 03:04 | 24.72025 | -109.88928 | 38935 ft | 472 kts | 143° |
| 2026-05-06 03:05 | 24.67457 | -109.83721 | 38932 ft | 473 kts | 143° |
| 2026-05-06 03:05 | 24.65124 | -109.81068 | 38395 ft | 483 kts | 143° |
| 2026-05-06 03:05 | 24.62828 | -109.78457 | 37806 ft | 478 kts | 143° |
| 2026-05-06 03:05 | 24.60532 | -109.75836 | 37038 ft | 473 kts | 142° |
| 2026-05-06 03:06 | 24.58267 | -109.73252 | 36420 ft | 466 kts | 142° |
| 2026-05-06 03:06 | 24.56036 | -109.70710 | 35722 ft | 461 kts | 142° |
| 2026-05-06 03:06 | 24.53804 | -109.68175 | 34967 ft | 459 kts | 143° |
| 2026-05-06 03:06 | 24.51590 | -109.65666 | 34193 ft | 459 kts | 143° |
| 2026-05-06 03:07 | 24.49340 | -109.63125 | 33302 ft | 467 kts | 142° |
| 2026-05-06 03:07 | 24.47062 | -109.60552 | 32422 ft | 474 kts | 142° |
| 2026-05-06 03:07 | 24.44756 | -109.57943 | 31543 ft | 475 kts | 142° |
| 2026-05-06 03:07 | 24.42468 | -109.55344 | 30639 ft | 472 kts | 142° |
| 2026-05-06 03:08 | 24.40191 | -109.52761 | 29618 ft | 471 kts | 142° |
| 2026-05-06 03:08 | 24.37912 | -109.50182 | 28544 ft | 470 kts | 142° |
| 2026-05-06 03:08 | 24.35623 | -109.47601 | 27511 ft | 476 kts | 142° |
| 2026-05-06 03:08 | 24.33037 | -109.45393 | 26392 ft | 467 kts | 159° |
| 2026-05-06 03:09 | 24.30058 | -109.44250 | 25714 ft | 440 kts | 173° |
| 2026-05-06 03:09 | 24.27076 | -109.43881 | 24909 ft | 423 kts | 185° |
| 2026-05-06 03:09 | 24.24219 | -109.44254 | 24174 ft | 409 kts | 196° |
| 2026-05-06 03:09 | 24.21451 | -109.44967 | 23436 ft | 412 kts | 197° |
| 2026-05-06 03:10 | 24.18667 | -109.45722 | 22574 ft | 416 kts | 197° |
| 2026-05-06 03:10 | 24.15890 | -109.46469 | 21790 ft | 405 kts | 197° |
| 2026-05-06 03:10 | 24.13190 | -109.47181 | 21055 ft | 395 kts | 196° |
| 2026-05-06 03:10 | 24.10534 | -109.47871 | 20359 ft | 392 kts | 196° |
| 2026-05-06 03:11 | 24.07871 | -109.48556 | 19663 ft | 396 kts | 196° |
| 2026-05-06 03:11 | 24.05171 | -109.49249 | 18928 ft | 401 kts | 195° |
| 2026-05-06 03:11 | 24.02461 | -109.49941 | 18188 ft | 399 kts | 195° |
| 2026-05-06 03:11 | 23.99768 | -109.50627 | 17376 ft | 396 kts | 195° |
| 2026-05-06 03:12 | 23.97092 | -109.51308 | 16639 ft | 392 kts | 195° |
| 2026-05-06 03:12 | 23.94453 | -109.51979 | 15923 ft | 389 kts | 195° |
| 2026-05-06 03:12 | 23.91827 | -109.52641 | 15224 ft | 386 kts | 194° |
| 2026-05-06 03:12 | 23.89160 | -109.52839 | 14834 ft | 382 kts | 178° |
| 2026-05-06 03:13 | 23.86526 | -109.52521 | 14519 ft | 383 kts | 176° |
| 2026-05-06 03:13 | 23.83846 | -109.52164 | 14259 ft | 394 kts | 176° |
| 2026-05-06 03:13 | 23.81107 | -109.51802 | 13976 ft | 398 kts | 176° |
| 2026-05-06 03:13 | 23.78358 | -109.51448 | 13690 ft | 396 kts | 176° |
| 2026-05-06 03:14 | 23.75634 | -109.51107 | 13389 ft | 394 kts | 176° |
| 2026-05-06 03:14 | 23.72914 | -109.50774 | 13098 ft | 392 kts | 176° |
| 2026-05-06 03:14 | 23.70200 | -109.50446 | 12819 ft | 391 kts | 176° |
| 2026-05-06 03:14 | 23.67503 | -109.50122 | 12534 ft | 390 kts | 176° |
| 2026-05-06 03:15 | 23.64818 | -109.49801 | 12261 ft | 389 kts | 176° |
| 2026-05-06 03:15 | 23.62135 | -109.49479 | 11997 ft | 388 kts | 176° |
| 2026-05-06 03:15 | 23.59440 | -109.49157 | 11726 ft | 387 kts | 176° |
| 2026-05-06 03:15 | 23.56788 | -109.48839 | 11449 ft | 378 kts | 176° |
| 2026-05-06 03:16 | 23.54224 | -109.48530 | 11187 ft | 365 kts | 176° |
| 2026-05-06 03:16 | 23.51750 | -109.48232 | 10933 ft | 353 kts | 176° |
| 2026-05-06 03:16 | 23.49347 | -109.48122 | 10665 ft | 337 kts | 190° |
| 2026-05-06 03:16 | 23.47135 | -109.48670 | 10474 ft | 318 kts | 195° |
| 2026-05-06 03:17 | 23.45032 | -109.49229 | 10241 ft | 304 kts | 195° |
| 2026-05-06 03:17 | 23.43017 | -109.49752 | 10034 ft | 292 kts | 195° |
| 2026-05-06 03:17 | 23.41080 | -109.50248 | 9832 ft | 281 kts | 195° |
| 2026-05-06 03:17 | 23.39236 | -109.50718 | 9622 ft | 272 kts | 195° |
| 2026-05-06 03:18 | 23.37407 | -109.51182 | 9427 ft | 268 kts | 195° |
| 2026-05-06 03:18 | 23.35582 | -109.51645 | 9246 ft | 271 kts | 195° |
| 2026-05-06 03:18 | 23.33732 | -109.52114 | 9071 ft | 275 kts | 195° |
| 2026-05-06 03:18 | 23.31854 | -109.52589 | 8878 ft | 278 kts | 195° |
| 2026-05-06 03:19 | 23.29976 | -109.53063 | 8698 ft | 277 kts | 195° |
| 2026-05-06 03:19 | 23.28105 | -109.53533 | 8484 ft | 275 kts | 195° |
| 2026-05-06 03:19 | 23.26242 | -109.54001 | 8293 ft | 274 kts | 195° |
| 2026-05-06 03:19 | 23.24389 | -109.54466 | 8099 ft | 273 kts | 195° |
| 2026-05-06 03:20 | 23.20677 | -109.55397 | 7611 ft | 276 kts | 195° |
| 2026-05-06 03:20 | 23.18803 | -109.55866 | 7337 ft | 277 kts | 195° |
| 2026-05-06 03:20 | 23.16929 | -109.56334 | 7059 ft | 275 kts | 195° |
| 2026-05-06 03:21 | 23.15078 | -109.56797 | 6787 ft | 272 kts | 195° |
| 2026-05-06 03:21 | 23.13235 | -109.57259 | 6512 ft | 271 kts | 195° |
| 2026-05-06 03:21 | 23.11414 | -109.57715 | 6231 ft | 270 kts | 195° |
| 2026-05-06 03:21 | 23.09577 | -109.58176 | 5949 ft | 269 kts | 195° |
| 2026-05-06 03:22 | 23.07758 | -109.58632 | 5674 ft | 268 kts | 195° |
| 2026-05-06 03:22 | 23.05946 | -109.59087 | 5402 ft | 266 kts | 195° |
| 2026-05-06 03:22 | 23.04146 | -109.59537 | 5136 ft | 265 kts | 195° |
| 2026-05-06 03:22 | 23.02369 | -109.59980 | 4875 ft | 263 kts | 194° |
| 2026-05-06 03:23 | 23.00588 | -109.60427 | 4599 ft | 259 kts | 196° |
| 2026-05-06 03:23 | 22.99025 | -109.61271 | 4299 ft | 247 kts | 225° |
| 2026-05-06 03:23 | 22.98095 | -109.62758 | 4060 ft | 235 kts | 249° |
| 2026-05-06 03:23 | 22.97723 | -109.64451 | 3812 ft | 227 kts | 263° |
| 2026-05-06 03:24 | 22.97551 | -109.66129 | 3581 ft | 222 kts | 265° |
| 2026-05-06 03:24 | 22.97463 | -109.67788 | 3352 ft | 219 kts | 277° |
| 2026-05-06 03:24 | 22.98048 | -109.69264 | 3160 ft | 213 kts | 313° |
| 2026-05-06 03:24 | 22.99221 | -109.70154 | 2972 ft | 211 kts | 340° |
| 2026-05-06 03:25 | 23.00680 | -109.70449 | 2779 ft | 211 kts | 354° |
| 2026-05-06 03:25 | 23.02119 | -109.70607 | 2556 ft | 203 kts | 353° |
| 2026-05-06 03:25 | 23.03463 | -109.70744 | 2319 ft | 189 kts | 354° |
| 2026-05-06 03:25 | 23.04735 | -109.70890 | 2056 ft | 179 kts | 352° |
| 2026-05-06 03:26 | 23.05937 | -109.71051 | 1780 ft | 170 kts | 352° |
| 2026-05-06 03:26 | 23.07059 | -109.71162 | 1591 ft | 155 kts | 355° |
| 2026-05-06 03:26 | 23.08078 | -109.71260 | 1397 ft | 142 kts | 353° |
| 2026-05-06 03:26 | 23.09047 | -109.71401 | 1098 ft | 144 kts | 352° |
| 2026-05-06 03:27 | 23.10107 | -109.71514 | 945 ft | 158 kts | 353° |
| 2026-05-06 03:27 | 23.11163 | -109.71623 | 810 ft | 145 kts | 353° |
| 2026-05-06 03:27 | 23.12158 | -109.71736 | 636 ft | 147 kts | 352° |
| 2026-05-06 03:27 | 23.13183 | -109.71856 | 472 ft | 148 kts | 353° |
| 2026-05-06 03:28 | 23.14200 | -109.71973 | 337 ft | 142 kts | 354° |
| 2026-05-06 03:28 | 23.14880 | -109.72045 | 353 ft | 58 kts | 354° |
| 2026-05-06 03:28 | 23.15255 | -109.72082 | 365 ft | 54 kts | 354° |
| 2026-05-06 03:28 | 23.15490 | -109.72040 | 366 ft | 20 kts | 25° |
| 2026-05-06 03:29 | 23.15578 | -109.72000 | 367 ft | 13 kts | 24° |
| 2026-05-06 03:29 | 23.15631 | -109.71970 | 370 ft | 13 kts | 40° |
| 2026-05-06 03:29 | 23.15625 | -109.71915 | 373 ft | 0 kts | 133° |
| 2026-05-06 03:34 | 23.15619 | -109.71906 | 372 ft | 8 kts | 130° |
| 2026-05-06 03:35 | 23.15606 | -109.71849 | 367 ft | 7 kts | 103° |
| 2026-05-06 03:35 | 23.15598 | -109.71789 | 373 ft | 4 kts | 87° |
| 2026-05-06 03:35 | 23.15599 | -109.71772 | 372 ft | 0 kts | 85° |